sensor_id;sensor_type;location;lat;lon;timestamp;pressure;altitude;pressure_sealevel;temperature;humidity
6216;BME280;3141;49.234;9.326;2023-04-28T00:00:10;99485.91;;;14.16;63.50
6216;BME280;3141;49.234;9.326;2023-04-28T00:00:52;99487.91;;;14.14;63.80
6216;BME280;3141;49.234;9.326;2023-04-28T00:01:35;99489.69;;;14.22;63.54
6216;BME280;3141;49.234;9.326;2023-04-28T00:02:17;99483.72;;;14.20;63.79
6216;BME280;3141;49.234;9.326;2023-04-28T00:02:59;99482.47;;;14.30;63.02
6216;BME280;3141;49.234;9.326;2023-04-28T00:03:42;99478.78;;;14.31;62.82
6216;BME280;3141;49.234;9.326;2023-04-28T00:04:24;99487.84;;;14.37;62.49
6216;BME280;3141;49.234;9.326;2023-04-28T00:05:07;99480.59;;;14.45;62.32
6216;BME280;3141;49.234;9.326;2023-04-28T00:05:51;99480.22;;;14.48;62.16
6216;BME280;3141;49.234;9.326;2023-04-28T00:06:34;99478.13;;;14.44;61.96
6216;BME280;3141;49.234;9.326;2023-04-28T00:07:16;99484.56;;;14.35;62.44
6216;BME280;3141;49.234;9.326;2023-04-28T00:07:58;99490.31;;;14.38;61.88
6216;BME280;3141;49.234;9.326;2023-04-28T00:08:41;99484.09;;;14.46;61.85
6216;BME280;3141;49.234;9.326;2023-04-28T00:09:23;99483.53;;;14.36;61.80
6216;BME280;3141;49.234;9.326;2023-04-28T00:10:06;99490.91;;;14.34;61.96
6216;BME280;3141;49.234;9.326;2023-04-28T00:10:48;99490.25;;;14.32;62.14
6216;BME280;3141;49.234;9.326;2023-04-28T00:11:31;99480.88;;;14.36;61.73
6216;BME280;3141;49.234;9.326;2023-04-28T00:12:13;99481.53;;;14.38;61.63
6216;BME280;3141;49.234;9.326;2023-04-28T00:12:55;99471.00;;;14.30;62.04
6216;BME280;3141;49.234;9.326;2023-04-28T00:13:38;99476.31;;;14.30;61.48
6216;BME280;3141;49.234;9.326;2023-04-28T00:14:20;99477.94;;;14.31;62.06
6216;BME280;3141;49.234;9.326;2023-04-28T00:15:03;99467.22;;;14.39;61.22
6216;BME280;3141;49.234;9.326;2023-04-28T00:15:45;99470.59;;;14.33;61.38
6216;BME280;3141;49.234;9.326;2023-04-28T00:16:27;99473.19;;;14.41;61.15
6216;BME280;3141;49.234;9.326;2023-04-28T00:17:10;99475.84;;;14.41;60.93
6216;BME280;3141;49.234;9.326;2023-04-28T00:17:52;99468.50;;;14.43;60.58
6216;BME280;3141;49.234;9.326;2023-04-28T00:18:35;99479.03;;;14.51;60.73
6216;BME280;3141;49.234;9.326;2023-04-28T00:19:17;99473.34;;;14.54;60.44
6216;BME280;3141;49.234;9.326;2023-04-28T00:19:59;99467.69;;;14.42;60.80
6216;BME280;3141;49.234;9.326;2023-04-28T00:20:42;99482.44;;;14.45;60.81
6216;BME280;3141;49.234;9.326;2023-04-28T00:21:24;99476.91;;;14.46;60.62
6216;BME280;3141;49.234;9.326;2023-04-28T00:22:06;99484.38;;;14.51;60.62
6216;BME280;3141;49.234;9.326;2023-04-28T00:22:49;99477.03;;;14.53;60.55
6216;BME280;3141;49.234;9.326;2023-04-28T00:23:32;99488.75;;;14.58;60.26
6216;BME280;3141;49.234;9.326;2023-04-28T00:24:14;99482.50;;;14.66;59.78
6216;BME280;3141;49.234;9.326;2023-04-28T00:24:56;99482.94;;;14.69;59.83
6216;BME280;3141;49.234;9.326;2023-04-28T00:25:38;99481.31;;;14.68;59.46
6216;BME280;3141;49.234;9.326;2023-04-28T00:26:21;99483.69;;;14.63;59.81
6216;BME280;3141;49.234;9.326;2023-04-28T00:27:03;99481.47;;;14.67;59.93
6216;BME280;3141;49.234;9.326;2023-04-28T00:27:46;99478.19;;;14.65;59.81
6216;BME280;3141;49.234;9.326;2023-04-28T00:28:28;99480.88;;;14.65;59.79
6216;BME280;3141;49.234;9.326;2023-04-28T00:29:10;99476.25;;;14.73;59.58
6216;BME280;3141;49.234;9.326;2023-04-28T00:29:53;99473.22;;;14.76;59.24
6216;BME280;3141;49.234;9.326;2023-04-28T00:30:35;99477.50;;;14.77;59.33
6216;BME280;3141;49.234;9.326;2023-04-28T00:31:17;99474.06;;;14.77;59.82
6216;BME280;3141;49.234;9.326;2023-04-28T00:32:00;99472.63;;;14.81;59.62
6216;BME280;3141;49.234;9.326;2023-04-28T00:32:42;99468.34;;;14.80;59.83
6216;BME280;3141;49.234;9.326;2023-04-28T00:33:24;99470.63;;;14.83;59.50
6216;BME280;3141;49.234;9.326;2023-04-28T00:34:07;99470.09;;;14.73;60.33
6216;BME280;3141;49.234;9.326;2023-04-28T00:34:49;99466.59;;;14.72;60.32
6216;BME280;3141;49.234;9.326;2023-04-28T00:35:31;99469.06;;;14.74;60.45
6216;BME280;3141;49.234;9.326;2023-04-28T00:36:13;99467.81;;;14.70;60.37
6216;BME280;3141;49.234;9.326;2023-04-28T00:36:56;99467.44;;;14.73;60.24
6216;BME280;3141;49.234;9.326;2023-04-28T00:37:38;99462.13;;;14.73;60.23
6216;BME280;3141;49.234;9.326;2023-04-28T00:38:20;99465.41;;;14.75;60.14
6216;BME280;3141;49.234;9.326;2023-04-28T00:39:06;99463.31;;;14.70;60.16
6216;BME280;3141;49.234;9.326;2023-04-28T00:39:53;99466.22;;;14.75;60.09
6216;BME280;3141;49.234;9.326;2023-04-28T00:40:37;99465.41;;;14.75;59.70
6216;BME280;3141;49.234;9.326;2023-04-28T00:41:19;99463.22;;;14.78;59.73
6216;BME280;3141;49.234;9.326;2023-04-28T00:42:02;99470.75;;;14.75;60.12
6216;BME280;3141;49.234;9.326;2023-04-28T00:42:45;99469.34;;;14.79;59.69
6216;BME280;3141;49.234;9.326;2023-04-28T00:43:27;99464.41;;;14.76;59.42
6216;BME280;3141;49.234;9.326;2023-04-28T00:44:10;99463.75;;;14.74;60.05
6216;BME280;3141;49.234;9.326;2023-04-28T00:44:52;99463.50;;;14.69;60.21
6216;BME280;3141;49.234;9.326;2023-04-28T00:45:34;99463.50;;;14.69;60.06
6216;BME280;3141;49.234;9.326;2023-04-28T00:46:22;99463.56;;;14.75;59.72
6216;BME280;3141;49.234;9.326;2023-04-28T00:47:06;99470.34;;;14.78;59.62
6216;BME280;3141;49.234;9.326;2023-04-28T00:47:49;99473.28;;;14.83;59.44
6216;BME280;3141;49.234;9.326;2023-04-28T00:48:31;99465.97;;;14.70;59.34
6216;BME280;3141;49.234;9.326;2023-04-28T00:49:14;99467.50;;;14.79;59.30
6216;BME280;3141;49.234;9.326;2023-04-28T00:49:58;99474.56;;;14.87;59.22
6216;BME280;3141;49.234;9.326;2023-04-28T00:50:42;99470.88;;;14.88;59.42
6216;BME280;3141;49.234;9.326;2023-04-28T00:51:25;99465.56;;;14.88;59.37
6216;BME280;3141;49.234;9.326;2023-04-28T00:52:09;99461.72;;;14.90;59.85
6216;BME280;3141;49.234;9.326;2023-04-28T00:52:52;99460.03;;;14.89;59.78
6216;BME280;3141;49.234;9.326;2023-04-28T00:53:34;99465.41;;;14.75;60.46
6216;BME280;3141;49.234;9.326;2023-04-28T00:54:16;99471.28;;;14.70;61.71
6216;BME280;3141;49.234;9.326;2023-04-28T00:54:59;99482.63;;;14.43;64.51
6216;BME280;3141;49.234;9.326;2023-04-28T00:55:41;99475.94;;;14.33;65.93
6216;BME280;3141;49.234;9.326;2023-04-28T00:56:24;99477.00;;;14.24;66.59
6216;BME280;3141;49.234;9.326;2023-04-28T00:57:09;99474.16;;;14.11;67.89
6216;BME280;3141;49.234;9.326;2023-04-28T00:57:54;99472.59;;;14.02;67.88
6216;BME280;3141;49.234;9.326;2023-04-28T00:58:37;99475.19;;;14.10;67.57
6216;BME280;3141;49.234;9.326;2023-04-28T00:59:20;99468.84;;;14.11;67.56
6216;BME280;3141;49.234;9.326;2023-04-28T01:00:02;99474.81;;;14.13;67.46
6216;BME280;3141;49.234;9.326;2023-04-28T01:00:45;99476.81;;;14.11;67.85
6216;BME280;3141;49.234;9.326;2023-04-28T01:01:28;99479.22;;;14.06;68.20
6216;BME280;3141;49.234;9.326;2023-04-28T01:02:10;99484.63;;;13.98;69.67
6216;BME280;3141;49.234;9.326;2023-04-28T01:02:58;99482.22;;;13.88;70.66
6216;BME280;3141;49.234;9.326;2023-04-28T01:03:41;99483.09;;;13.80;71.52
6216;BME280;3141;49.234;9.326;2023-04-28T01:04:23;99485.88;;;13.87;71.81
6216;BME280;3141;49.234;9.326;2023-04-28T01:05:07;99481.75;;;13.84;72.34
6216;BME280;3141;49.234;9.326;2023-04-28T01:05:50;99482.31;;;13.80;72.56
6216;BME280;3141;49.234;9.326;2023-04-28T01:06:33;99483.03;;;13.88;71.11
6216;BME280;3141;49.234;9.326;2023-04-28T01:07:15;99476.38;;;13.93;72.34
6216;BME280;3141;49.234;9.326;2023-04-28T01:07:58;99472.13;;;13.83;73.54
6216;BME280;3141;49.234;9.326;2023-04-28T01:08:40;99474.84;;;13.75;74.94
6216;BME280;3141;49.234;9.326;2023-04-28T01:09:23;99472.78;;;13.85;74.38
6216;BME280;3141;49.234;9.326;2023-04-28T01:10:07;99472.03;;;13.91;73.06
6216;BME280;3141;49.234;9.326;2023-04-28T01:10:49;99465.44;;;13.87;74.21
6216;BME280;3141;49.234;9.326;2023-04-28T01:11:31;99460.13;;;13.87;73.71
6216;BME280;3141;49.234;9.326;2023-04-28T01:12:14;99458.91;;;13.75;74.29
6216;BME280;3141;49.234;9.326;2023-04-28T01:12:56;99459.84;;;13.68;75.35
6216;BME280;3141;49.234;9.326;2023-04-28T01:13:39;99457.00;;;13.69;75.89
6216;BME280;3141;49.234;9.326;2023-04-28T01:14:21;99456.16;;;13.69;75.97
6216;BME280;3141;49.234;9.326;2023-04-28T01:15:04;99468.00;;;13.66;76.97
6216;BME280;3141;49.234;9.326;2023-04-28T01:15:47;99452.75;;;13.60;77.68
6216;BME280;3141;49.234;9.326;2023-04-28T01:16:30;99445.75;;;13.45;78.34
6216;BME280;3141;49.234;9.326;2023-04-28T01:17:13;99439.31;;;13.25;78.59
6216;BME280;3141;49.234;9.326;2023-04-28T01:17:56;99427.44;;;13.35;78.63
6216;BME280;3141;49.234;9.326;2023-04-28T01:18:41;99424.06;;;13.41;77.72
6216;BME280;3141;49.234;9.326;2023-04-28T01:19:27;99427.63;;;13.34;78.57
6216;BME280;3141;49.234;9.326;2023-04-28T01:20:11;99433.41;;;13.52;77.75
6216;BME280;3141;49.234;9.326;2023-04-28T01:20:53;99428.22;;;13.58;77.31
6216;BME280;3141;49.234;9.326;2023-04-28T01:21:35;99427.78;;;13.69;76.87
6216;BME280;3141;49.234;9.326;2023-04-28T01:22:18;99421.56;;;13.77;76.99
6216;BME280;3141;49.234;9.326;2023-04-28T01:23:00;99432.19;;;13.77;77.04
6216;BME280;3141;49.234;9.326;2023-04-28T01:23:45;99429.69;;;13.75;77.31
6216;BME280;3141;49.234;9.326;2023-04-28T01:24:27;99425.22;;;13.76;77.04
6216;BME280;3141;49.234;9.326;2023-04-28T01:25:09;99419.53;;;13.79;76.95
6216;BME280;3141;49.234;9.326;2023-04-28T01:25:52;99429.16;;;13.80;77.06
6216;BME280;3141;49.234;9.326;2023-04-28T01:26:34;99430.63;;;13.82;76.46
6216;BME280;3141;49.234;9.326;2023-04-28T01:27:16;99429.81;;;13.82;77.08
6216;BME280;3141;49.234;9.326;2023-04-28T01:27:59;99433.66;;;13.79;77.16
6216;BME280;3141;49.234;9.326;2023-04-28T01:28:41;99431.19;;;13.78;76.96
6216;BME280;3141;49.234;9.326;2023-04-28T01:29:23;99432.28;;;13.83;76.62
6216;BME280;3141;49.234;9.326;2023-04-28T01:30:06;99426.78;;;13.85;75.65
6216;BME280;3141;49.234;9.326;2023-04-28T01:30:49;99420.34;;;13.79;75.10
6216;BME280;3141;49.234;9.326;2023-04-28T01:31:31;99423.84;;;13.80;76.60
6216;BME280;3141;49.234;9.326;2023-04-28T01:32:13;99417.16;;;13.84;77.20
6216;BME280;3141;49.234;9.326;2023-04-28T01:32:56;99424.19;;;13.62;77.10
6216;BME280;3141;49.234;9.326;2023-04-28T01:33:38;99420.88;;;13.60;77.95
6216;BME280;3141;49.234;9.326;2023-04-28T01:34:20;99419.25;;;13.59;77.83
6216;BME280;3141;49.234;9.326;2023-04-28T01:35:03;99423.16;;;13.63;77.85
6216;BME280;3141;49.234;9.326;2023-04-28T01:35:45;99419.59;;;13.56;78.03
6216;BME280;3141;49.234;9.326;2023-04-28T01:36:27;99419.59;;;13.56;77.96
6216;BME280;3141;49.234;9.326;2023-04-28T01:37:10;99420.69;;;13.47;79.05
6216;BME280;3141;49.234;9.326;2023-04-28T01:37:52;99422.34;;;13.48;79.01
6216;BME280;3141;49.234;9.326;2023-04-28T01:38:35;99422.34;;;13.48;78.93
6216;BME280;3141;49.234;9.326;2023-04-28T01:39:17;99417.66;;;13.50;78.61
6216;BME280;3141;49.234;9.326;2023-04-28T01:40:00;99433.88;;;13.55;78.39
6216;BME280;3141;49.234;9.326;2023-04-28T01:40:42;99427.50;;;13.64;77.47
6216;BME280;3141;49.234;9.326;2023-04-28T01:41:24;99426.09;;;13.68;77.75
6216;BME280;3141;49.234;9.326;2023-04-28T01:42:07;99429.59;;;13.69;77.75
6216;BME280;3141;49.234;9.326;2023-04-28T01:42:49;99428.44;;;13.71;76.65
6216;BME280;3141;49.234;9.326;2023-04-28T01:43:32;99436.91;;;13.67;77.89
6216;BME280;3141;49.234;9.326;2023-04-28T01:44:14;99425.59;;;13.73;77.59
6216;BME280;3141;49.234;9.326;2023-04-28T01:44:56;99419.44;;;13.72;78.95
6216;BME280;3141;49.234;9.326;2023-04-28T01:45:39;99428.44;;;13.71;77.76
6216;BME280;3141;49.234;9.326;2023-04-28T01:46:21;99423.13;;;13.71;77.04
6216;BME280;3141;49.234;9.326;2023-04-28T01:47:04;99428.53;;;13.78;76.84
6216;BME280;3141;49.234;9.326;2023-04-28T01:47:46;99425.03;;;13.77;77.08
6216;BME280;3141;49.234;9.326;2023-04-28T01:48:28;99411.38;;;13.80;77.57
6216;BME280;3141;49.234;9.326;2023-04-28T01:49:11;99410.56;;;13.80;77.89
6216;BME280;3141;49.234;9.326;2023-04-28T01:49:53;99409.28;;;13.76;77.58
6216;BME280;3141;49.234;9.326;2023-04-28T01:50:35;99403.78;;;13.77;77.48
6216;BME280;3141;49.234;9.326;2023-04-28T01:51:17;99414.66;;;13.82;77.06
6216;BME280;3141;49.234;9.326;2023-04-28T01:52:00;99404.31;;;13.87;77.14
6216;BME280;3141;49.234;9.326;2023-04-28T01:52:42;99411.69;;;13.85;77.04
6216;BME280;3141;49.234;9.326;2023-04-28T01:53:24;99408.72;;;13.80;78.08
6216;BME280;3141;49.234;9.326;2023-04-28T01:54:07;99411.94;;;13.76;78.84
6216;BME280;3141;49.234;9.326;2023-04-28T01:54:49;99413.13;;;13.73;78.63
6216;BME280;3141;49.234;9.326;2023-04-28T01:55:32;99406.16;;;13.72;78.77
6216;BME280;3141;49.234;9.326;2023-04-28T01:56:14;99397.81;;;13.75;78.83
6216;BME280;3141;49.234;9.326;2023-04-28T01:56:56;99404.53;;;13.71;78.77
6216;BME280;3141;49.234;9.326;2023-04-28T01:57:39;99404.25;;;13.66;79.53
6216;BME280;3141;49.234;9.326;2023-04-28T01:58:21;99401.78;;;13.65;79.65
6216;BME280;3141;49.234;9.326;2023-04-28T01:59:03;99392.31;;;13.62;79.73
6216;BME280;3141;49.234;9.326;2023-04-28T01:59:46;99400.09;;;13.64;79.70
6216;BME280;3141;49.234;9.326;2023-04-28T02:00:28;99390.69;;;13.61;80.21
6216;BME280;3141;49.234;9.326;2023-04-28T02:01:10;99389.38;;;13.57;80.31
6216;BME280;3141;49.234;9.326;2023-04-28T02:01:53;99394.69;;;13.57;80.05
6216;BME280;3141;49.234;9.326;2023-04-28T02:02:35;99392.69;;;13.59;79.66
6216;BME280;3141;49.234;9.326;2023-04-28T02:03:17;99391.03;;;13.58;79.39
6216;BME280;3141;49.234;9.326;2023-04-28T02:04:00;99388.50;;;13.65;79.71
6216;BME280;3141;49.234;9.326;2023-04-28T02:04:42;99387.09;;;13.69;79.19
6216;BME280;3141;49.234;9.326;2023-04-28T02:05:24;99392.59;;;13.67;78.81
6216;BME280;3141;49.234;9.326;2023-04-28T02:06:07;99388.31;;;13.66;79.57
6216;BME280;3141;49.234;9.326;2023-04-28T02:06:49;99396.47;;;13.65;79.09
6216;BME280;3141;49.234;9.326;2023-04-28T02:07:31;99386.19;;;13.62;78.91
6216;BME280;3141;49.234;9.326;2023-04-28T02:08:14;99386.91;;;13.56;79.28
6216;BME280;3141;49.234;9.326;2023-04-28T02:08:56;99379.03;;;13.62;79.19
6216;BME280;3141;49.234;9.326;2023-04-28T02:09:38;99392.13;;;13.64;78.72
6216;BME280;3141;49.234;9.326;2023-04-28T02:10:20;99382.78;;;13.53;79.81
6216;BME280;3141;49.234;9.326;2023-04-28T02:11:03;99391.75;;;13.52;79.27
6216;BME280;3141;49.234;9.326;2023-04-28T02:11:45;99391.75;;;13.52;79.61
6216;BME280;3141;49.234;9.326;2023-04-28T02:12:27;99391.59;;;13.54;79.30
6216;BME280;3141;49.234;9.326;2023-04-28T02:13:10;99385.16;;;13.48;79.58
6216;BME280;3141;49.234;9.326;2023-04-28T02:13:52;99390.00;;;13.45;79.63
6216;BME280;3141;49.234;9.326;2023-04-28T02:14:35;99387.63;;;13.50;79.68
6216;BME280;3141;49.234;9.326;2023-04-28T02:15:17;99386.09;;;13.55;79.89
6216;BME280;3141;49.234;9.326;2023-04-28T02:16:00;99384.06;;;13.57;79.37
6216;BME280;3141;49.234;9.326;2023-04-28T02:16:43;99384.63;;;13.53;80.46
6216;BME280;3141;49.234;9.326;2023-04-28T02:17:25;99386.28;;;13.54;79.87
6216;BME280;3141;49.234;9.326;2023-04-28T02:18:10;99382.97;;;13.52;80.43
6216;BME280;3141;49.234;9.326;2023-04-28T02:18:52;99383.44;;;13.55;80.29
6216;BME280;3141;49.234;9.326;2023-04-28T02:19:35;99388.31;;;13.66;79.27
6216;BME280;3141;49.234;9.326;2023-04-28T02:20:19;99389.94;;;13.67;78.95
6216;BME280;3141;49.234;9.326;2023-04-28T02:21:09;99384.63;;;13.67;78.68
6216;BME280;3141;49.234;9.326;2023-04-28T02:21:54;99389.38;;;13.72;78.37
6216;BME280;3141;49.234;9.326;2023-04-28T02:22:36;99391.13;;;13.79;78.35
6216;BME280;3141;49.234;9.326;2023-04-28T02:23:18;99388.09;;;13.82;77.70
6216;BME280;3141;49.234;9.326;2023-04-28T02:24:01;99388.38;;;13.73;78.15
6216;BME280;3141;49.234;9.326;2023-04-28T02:24:44;99389.69;;;13.77;78.04
6216;BME280;3141;49.234;9.326;2023-04-28T02:25:26;99384.72;;;13.74;78.20
6216;BME280;3141;49.234;9.326;2023-04-28T02:26:09;99385.63;;;13.81;77.37
6216;BME280;3141;49.234;9.326;2023-04-28T02:26:51;99385.44;;;13.82;77.70
6216;BME280;3141;49.234;9.326;2023-04-28T02:27:34;99385.56;;;13.89;77.53
6216;BME280;3141;49.234;9.326;2023-04-28T02:28:17;99386.19;;;13.91;77.10
6216;BME280;3141;49.234;9.326;2023-04-28T02:29:00;99385.91;;;13.86;77.81
6216;BME280;3141;49.234;9.326;2023-04-28T02:29:45;99392.25;;;13.85;76.89
6216;BME280;3141;49.234;9.326;2023-04-28T02:30:27;99387.56;;;13.87;77.25
6216;BME280;3141;49.234;9.326;2023-04-28T02:31:10;99387.38;;;13.88;77.07
6216;BME280;3141;49.234;9.326;2023-04-28T02:31:52;99385.38;;;13.90;77.17
6216;BME280;3141;49.234;9.326;2023-04-28T02:32:35;99389.66;;;13.91;76.86
6216;BME280;3141;49.234;9.326;2023-04-28T02:33:17;99388.50;;;13.94;76.85
6216;BME280;3141;49.234;9.326;2023-04-28T02:33:59;99387.84;;;13.92;77.52
6216;BME280;3141;49.234;9.326;2023-04-28T02:34:42;99387.28;;;13.97;77.21
6216;BME280;3141;49.234;9.326;2023-04-28T02:35:24;99380.97;;;13.98;77.15
6216;BME280;3141;49.234;9.326;2023-04-28T02:36:07;99381.59;;;14.00;76.72
6216;BME280;3141;49.234;9.326;2023-04-28T02:36:49;99386.38;;;14.04;76.96
6216;BME280;3141;49.234;9.326;2023-04-28T02:37:32;99376.19;;;14.08;76.66
6216;BME280;3141;49.234;9.326;2023-04-28T02:38:14;99379.50;;;14.10;76.34
6216;BME280;3141;49.234;9.326;2023-04-28T02:38:56;99378.22;;;14.06;76.50
6216;BME280;3141;49.234;9.326;2023-04-28T02:39:39;99380.78;;;13.99;77.31
6216;BME280;3141;49.234;9.326;2023-04-28T02:40:21;99379.22;;;13.90;77.54
6216;BME280;3141;49.234;9.326;2023-04-28T02:41:05;99388.38;;;14.02;76.98
6216;BME280;3141;49.234;9.326;2023-04-28T02:41:48;99385.16;;;14.07;76.54
6216;BME280;3141;49.234;9.326;2023-04-28T02:42:30;99384.34;;;14.06;76.51
6216;BME280;3141;49.234;9.326;2023-04-28T02:43:13;99374.91;;;14.04;76.84
6216;BME280;3141;49.234;9.326;2023-04-28T02:43:55;99385.47;;;13.97;76.66
6216;BME280;3141;49.234;9.326;2023-04-28T02:44:37;99380.53;;;13.94;77.34
6216;BME280;3141;49.234;9.326;2023-04-28T02:45:20;99386.44;;;13.96;77.46
6216;BME280;3141;49.234;9.326;2023-04-28T02:46:03;99386.63;;;13.94;77.76
6216;BME280;3141;49.234;9.326;2023-04-28T02:46:45;99388.31;;;13.96;77.20
6216;BME280;3141;49.234;9.326;2023-04-28T02:47:27;99393.88;;;14.01;77.34
6216;BME280;3141;49.234;9.326;2023-04-28T02:48:10;99386.44;;;13.96;76.61
6216;BME280;3141;49.234;9.326;2023-04-28T02:48:52;99391.59;;;13.98;76.90
6216;BME280;3141;49.234;9.326;2023-04-28T02:49:34;99384.53;;;14.05;76.60
6216;BME280;3141;49.234;9.326;2023-04-28T02:50:17;99390.84;;;14.04;76.83
6216;BME280;3141;49.234;9.326;2023-04-28T02:50:59;99385.53;;;14.04;76.59
6216;BME280;3141;49.234;9.326;2023-04-28T02:51:42;99392.78;;;13.95;76.82
6216;BME280;3141;49.234;9.326;2023-04-28T02:52:24;99389.94;;;13.97;76.76
6216;BME280;3141;49.234;9.326;2023-04-28T02:53:06;99378.94;;;14.00;76.81
6216;BME280;3141;49.234;9.326;2023-04-28T02:53:48;99382.97;;;13.96;76.90
6216;BME280;3141;49.234;9.326;2023-04-28T02:54:31;99384.63;;;13.97;77.66
6216;BME280;3141;49.234;9.326;2023-04-28T02:55:15;99384.69;;;14.03;77.29
6216;BME280;3141;49.234;9.326;2023-04-28T02:56:04;99374.53;;;14.07;76.84
6216;BME280;3141;49.234;9.326;2023-04-28T02:56:47;99380.88;;;14.06;77.61
6216;BME280;3141;49.234;9.326;2023-04-28T02:57:29;99381.25;;;14.03;77.69
6216;BME280;3141;49.234;9.326;2023-04-28T02:58:12;99374.44;;;14.00;77.60
6216;BME280;3141;49.234;9.326;2023-04-28T02:58:54;99367.50;;;13.99;77.38
6216;BME280;3141;49.234;9.326;2023-04-28T02:59:36;99380.31;;;13.96;77.16
6216;BME280;3141;49.234;9.326;2023-04-28T03:00:19;99376.84;;;13.95;77.79
6216;BME280;3141;49.234;9.326;2023-04-28T03:01:01;99380.78;;;13.84;79.01
6216;BME280;3141;49.234;9.326;2023-04-28T03:01:44;99376.84;;;13.80;79.23
6216;BME280;3141;49.234;9.326;2023-04-28T03:02:26;99378.56;;;13.88;78.62
6216;BME280;3141;49.234;9.326;2023-04-28T03:03:08;99377.75;;;13.87;79.04
6216;BME280;3141;49.234;9.326;2023-04-28T03:03:50;99374.94;;;13.89;79.63
6216;BME280;3141;49.234;9.326;2023-04-28T03:04:33;99369.31;;;13.84;79.30
6216;BME280;3141;49.234;9.326;2023-04-28T03:05:15;99362.00;;;13.86;79.13
6216;BME280;3141;49.234;9.326;2023-04-28T03:05:57;99369.16;;;13.85;78.94
6216;BME280;3141;49.234;9.326;2023-04-28T03:06:40;99364.31;;;13.89;79.57
6216;BME280;3141;49.234;9.326;2023-04-28T03:07:23;99364.47;;;13.87;79.49
6216;BME280;3141;49.234;9.326;2023-04-28T03:08:05;99364.75;;;13.93;78.80
6216;BME280;3141;49.234;9.326;2023-04-28T03:08:48;99369.44;;;13.90;79.20
6216;BME280;3141;49.234;9.326;2023-04-28T03:09:30;99373.06;;;13.89;78.94
6216;BME280;3141;49.234;9.326;2023-04-28T03:10:13;99371.34;;;13.82;79.77
6216;BME280;3141;49.234;9.326;2023-04-28T03:10:55;99373.00;;;13.83;79.10
6216;BME280;3141;49.234;9.326;2023-04-28T03:11:37;99365.84;;;13.83;78.78
6216;BME280;3141;49.234;9.326;2023-04-28T03:12:20;99377.47;;;13.82;78.39
6216;BME280;3141;49.234;9.326;2023-04-28T03:13:02;99370.06;;;13.78;80.07
6216;BME280;3141;49.234;9.326;2023-04-28T03:13:44;99370.25;;;13.76;80.50
6216;BME280;3141;49.234;9.326;2023-04-28T03:14:26;99374.00;;;13.82;79.64
6216;BME280;3141;49.234;9.326;2023-04-28T03:15:09;99379.59;;;13.87;79.90
6216;BME280;3141;49.234;9.326;2023-04-28T03:15:52;99379.22;;;13.90;80.08
6216;BME280;3141;49.234;9.326;2023-04-28T03:16:34;99376.75;;;13.88;80.68
6216;BME280;3141;49.234;9.326;2023-04-28T03:17:17;99384.34;;;13.91;81.10
6216;BME280;3141;49.234;9.326;2023-04-28T03:17:59;99382.06;;;13.88;80.61
6216;BME280;3141;49.234;9.326;2023-04-28T03:18:41;99373.72;;;13.91;79.57
6216;BME280;3141;49.234;9.326;2023-04-28T03:19:24;99368.59;;;13.90;80.33
6216;BME280;3141;49.234;9.326;2023-04-28T03:20:08;99369.16;;;13.85;80.52
6216;BME280;3141;49.234;9.326;2023-04-28T03:20:51;99368.84;;;13.80;80.73
6216;BME280;3141;49.234;9.326;2023-04-28T03:21:33;99371.44;;;13.88;80.36
6216;BME280;3141;49.234;9.326;2023-04-28T03:22:15;99366.84;;;13.82;81.27
6216;BME280;3141;49.234;9.326;2023-04-28T03:22:57;99363.94;;;13.92;81.16
6216;BME280;3141;49.234;9.326;2023-04-28T03:23:40;99368.88;;;13.95;81.17
6216;BME280;3141;49.234;9.326;2023-04-28T03:24:22;99366.50;;;13.85;81.20
6216;BME280;3141;49.234;9.326;2023-04-28T03:25:04;99368.25;;;13.78;81.00
6216;BME280;3141;49.234;9.326;2023-04-28T03:25:47;99370.06;;;13.78;80.59
6216;BME280;3141;49.234;9.326;2023-04-28T03:26:29;99368.50;;;13.83;79.82
6216;BME280;3141;49.234;9.326;2023-04-28T03:27:12;99368.97;;;13.87;79.39
6216;BME280;3141;49.234;9.326;2023-04-28T03:27:54;99371.25;;;13.90;79.27
6216;BME280;3141;49.234;9.326;2023-04-28T03:28:37;99364.91;;;13.91;79.92
6216;BME280;3141;49.234;9.326;2023-04-28T03:29:19;99363.34;;;13.97;79.84
6216;BME280;3141;49.234;9.326;2023-04-28T03:30:02;99362.97;;;14.00;79.96
6216;BME280;3141;49.234;9.326;2023-04-28T03:30:45;99360.16;;;14.01;79.91
6216;BME280;3141;49.234;9.326;2023-04-28T03:31:27;99358.97;;;14.04;78.82
6216;BME280;3141;49.234;9.326;2023-04-28T03:32:09;99358.97;;;14.04;79.04
6216;BME280;3141;49.234;9.326;2023-04-28T03:32:52;99354.22;;;13.99;79.19
6216;BME280;3141;49.234;9.326;2023-04-28T03:33:34;99358.31;;;14.02;79.15
6216;BME280;3141;49.234;9.326;2023-04-28T03:34:16;99359.78;;;14.04;78.81
6216;BME280;3141;49.234;9.326;2023-04-28T03:34:59;99356.50;;;14.02;79.20
6216;BME280;3141;49.234;9.326;2023-04-28T03:35:41;99358.97;;;14.04;79.04
6216;BME280;3141;49.234;9.326;2023-04-28T03:36:24;99354.41;;;13.98;80.02
6216;BME280;3141;49.234;9.326;2023-04-28T03:37:06;99366.66;;;13.99;80.41
6216;BME280;3141;49.234;9.326;2023-04-28T03:37:48;99365.03;;;13.98;79.31
6216;BME280;3141;49.234;9.326;2023-04-28T03:38:31;99363.56;;;13.95;79.73
6216;BME280;3141;49.234;9.326;2023-04-28T03:39:13;99360.44;;;13.91;80.30
6216;BME280;3141;49.234;9.326;2023-04-28T03:39:55;99353.03;;;13.87;81.64
6216;BME280;3141;49.234;9.326;2023-04-28T03:40:38;99353.56;;;13.82;82.02
6216;BME280;3141;49.234;9.326;2023-04-28T03:41:20;99349.47;;;13.80;81.85
6216;BME280;3141;49.234;9.326;2023-04-28T03:42:03;99347.34;;;13.75;82.63
6216;BME280;3141;49.234;9.326;2023-04-28T03:42:45;99347.06;;;13.70;82.62
6216;BME280;3141;49.234;9.326;2023-04-28T03:43:27;99347.34;;;13.75;82.56
6216;BME280;3141;49.234;9.326;2023-04-28T03:44:10;99342.94;;;13.82;82.75
6216;BME280;3141;49.234;9.326;2023-04-28T03:44:52;99345.84;;;13.87;82.38
6216;BME280;3141;49.234;9.326;2023-04-28T03:45:34;99344.03;;;13.88;82.66
6216;BME280;3141;49.234;9.326;2023-04-28T03:46:17;99344.50;;;13.91;81.87
6216;BME280;3141;49.234;9.326;2023-04-28T03:46:59;99340.53;;;13.87;82.05
6216;BME280;3141;49.234;9.326;2023-04-28T03:47:42;99334.50;;;13.93;80.95
6216;BME280;3141;49.234;9.326;2023-04-28T03:48:24;99334.13;;;13.97;81.30
6216;BME280;3141;49.234;9.326;2023-04-28T03:49:07;99335.16;;;13.96;81.69
6216;BME280;3141;49.234;9.326;2023-04-28T03:49:49;99331.66;;;13.95;81.91
6216;BME280;3141;49.234;9.326;2023-04-28T03:50:32;99332.13;;;13.99;81.21
6216;BME280;3141;49.234;9.326;2023-04-28T03:51:14;99329.91;;;14.02;81.09
6216;BME280;3141;49.234;9.326;2023-04-28T03:51:56;99329.34;;;14.07;80.50